sensor_id;sensor_type;location;lat;lon;timestamp;P1;durP1;ratioP1;P2;durP2;ratioP2
67798;SDS011;54596;43.216;27.904;2023-03-16T00:02:01;25.27;;;16.02;;
67798;SDS011;54596;43.216;27.904;2023-03-16T00:04:27;23.13;;;15.25;;
67798;SDS011;54596;43.216;27.904;2023-03-16T00:06:54;25.88;;;17.85;;
67798;SDS011;54596;43.216;27.904;2023-03-16T00:09:20;23.73;;;15.52;;
67798;SDS011;54596;43.216;27.904;2023-03-16T00:11:46;27.80;;;15.70;;
67798;SDS011;54596;43.216;27.904;2023-03-16T00:14:11;23.67;;;14.65;;
67798;SDS011;54596;43.216;27.904;2023-03-16T00:16:37;24.35;;;15.10;;
67798;SDS011;54596;43.216;27.904;2023-03-16T00:19:02;21.08;;;14.52;;
67798;SDS011;54596;43.216;27.904;2023-03-16T00:21:29;23.98;;;15.02;;
67798;SDS011;54596;43.216;27.904;2023-03-16T00:23:56;23.30;;;15.45;;
67798;SDS011;54596;43.216;27.904;2023-03-16T00:26:22;22.38;;;14.50;;
67798;SDS011;54596;43.216;27.904;2023-03-16T00:28:48;23.25;;;14.13;;
67798;SDS011;54596;43.216;27.904;2023-03-16T00:31:13;22.70;;;14.75;;
67798;SDS011;54596;43.216;27.904;2023-03-16T00:33:39;25.38;;;15.43;;
67798;SDS011;54596;43.216;27.904;2023-03-16T00:36:08;26.30;;;15.35;;
67798;SDS011;54596;43.216;27.904;2023-03-16T00:38:39;22.20;;;15.30;;
67798;SDS011;54596;43.216;27.904;2023-03-16T00:41:09;26.55;;;15.48;;
67798;SDS011;54596;43.216;27.904;2023-03-16T00:43:35;26.45;;;14.98;;
67798;SDS011;54596;43.216;27.904;2023-03-16T00:46:08;24.40;;;15.30;;
67798;SDS011;54596;43.216;27.904;2023-03-16T00:48:39;35.92;;;15.93;;
67798;SDS011;54596;43.216;27.904;2023-03-16T00:51:06;29.45;;;16.13;;
67798;SDS011;54596;43.216;27.904;2023-03-16T00:53:34;23.30;;;15.43;;
67798;SDS011;54596;43.216;27.904;2023-03-16T00:56:00;25.10;;;15.23;;
67798;SDS011;54596;43.216;27.904;2023-03-16T00:58:30;24.45;;;15.38;;
67798;SDS011;54596;43.216;27.904;2023-03-16T01:01:00;22.85;;;14.95;;
67798;SDS011;54596;43.216;27.904;2023-03-16T01:03:29;25.90;;;15.75;;
67798;SDS011;54596;43.216;27.904;2023-03-16T01:05:55;26.40;;;15.93;;
67798;SDS011;54596;43.216;27.904;2023-03-16T01:08:27;23.05;;;14.75;;
67798;SDS011;54596;43.216;27.904;2023-03-16T01:10:55;27.17;;;15.95;;
67798;SDS011;54596;43.216;27.904;2023-03-16T01:13:21;25.67;;;15.40;;
67798;SDS011;54596;43.216;27.904;2023-03-16T01:15:50;24.10;;;15.23;;
67798;SDS011;54596;43.216;27.904;2023-03-16T01:18:16;25.98;;;16.55;;
67798;SDS011;54596;43.216;27.904;2023-03-16T01:20:41;25.77;;;15.80;;
67798;SDS011;54596;43.216;27.904;2023-03-16T01:23:14;25.33;;;15.57;;
67798;SDS011;54596;43.216;27.904;2023-03-16T01:25:44;22.75;;;15.65;;
67798;SDS011;54596;43.216;27.904;2023-03-16T01:28:17;28.98;;;15.82;;
67798;SDS011;54596;43.216;27.904;2023-03-16T01:30:43;28.58;;;18.38;;
67798;SDS011;54596;43.216;27.904;2023-03-16T01:33:09;25.60;;;18.50;;
67798;SDS011;54596;43.216;27.904;2023-03-16T01:35:34;30.42;;;19.60;;
67798;SDS011;54596;43.216;27.904;2023-03-16T01:38:00;33.35;;;21.00;;
67798;SDS011;54596;43.216;27.904;2023-03-16T01:40:25;31.23;;;21.00;;
67798;SDS011;54596;43.216;27.904;2023-03-16T01:42:58;30.27;;;19.80;;
67798;SDS011;54596;43.216;27.904;2023-03-16T01:46:27;31.75;;;19.95;;
67798;SDS011;54596;43.216;27.904;2023-03-16T01:51:15;28.33;;;19.48;;
67798;SDS011;54596;43.216;27.904;2023-03-16T01:53:49;25.42;;;18.20;;
67798;SDS011;54596;43.216;27.904;2023-03-16T01:56:18;26.80;;;18.27;;
67798;SDS011;54596;43.216;27.904;2023-03-16T01:58:58;25.65;;;17.33;;
67798;SDS011;54596;43.216;27.904;2023-03-16T02:01:26;30.45;;;18.33;;
67798;SDS011;54596;43.216;27.904;2023-03-16T02:03:56;25.38;;;16.67;;
67798;SDS011;54596;43.216;27.904;2023-03-16T02:06:31;24.70;;;16.63;;
67798;SDS011;54596;43.216;27.904;2023-03-16T02:08:59;25.00;;;15.85;;
67798;SDS011;54596;43.216;27.904;2023-03-16T02:11:26;23.85;;;16.35;;
67798;SDS011;54596;43.216;27.904;2023-03-16T02:13:52;21.02;;;16.45;;
67798;SDS011;54596;43.216;27.904;2023-03-16T02:16:20;25.05;;;16.55;;
67798;SDS011;54596;43.216;27.904;2023-03-16T02:18:46;22.10;;;16.13;;
67798;SDS011;54596;43.216;27.904;2023-03-16T02:21:34;21.85;;;15.63;;
67798;SDS011;54596;43.216;27.904;2023-03-16T02:24:19;25.17;;;16.10;;
67798;SDS011;54596;43.216;27.904;2023-03-16T02:26:52;22.05;;;15.73;;
67798;SDS011;54596;43.216;27.904;2023-03-16T02:31:53;22.05;;;16.10;;
67798;SDS011;54596;43.216;27.904;2023-03-16T02:34:20;26.33;;;17.05;;
67798;SDS011;54596;43.216;27.904;2023-03-16T02:36:47;24.55;;;17.17;;
67798;SDS011;54596;43.216;27.904;2023-03-16T02:39:16;25.08;;;16.90;;
67798;SDS011;54596;43.216;27.904;2023-03-16T02:41:42;24.05;;;18.63;;
67798;SDS011;54596;43.216;27.904;2023-03-16T02:44:15;25.17;;;17.42;;
67798;SDS011;54596;43.216;27.904;2023-03-16T02:46:44;23.50;;;16.60;;
67798;SDS011;54596;43.216;27.904;2023-03-16T02:52:04;26.42;;;17.63;;
67798;SDS011;54596;43.216;27.904;2023-03-16T02:54:31;24.40;;;17.35;;
67798;SDS011;54596;43.216;27.904;2023-03-16T02:56:57;24.90;;;17.48;;
67798;SDS011;54596;43.216;27.904;2023-03-16T02:59:22;23.70;;;17.42;;
67798;SDS011;54596;43.216;27.904;2023-03-16T03:01:48;22.00;;;16.48;;
67798;SDS011;54596;43.216;27.904;2023-03-16T03:04:13;22.92;;;17.00;;
67798;SDS011;54596;43.216;27.904;2023-03-16T03:06:39;25.10;;;18.17;;
67798;SDS011;54596;43.216;27.904;2023-03-16T03:09:05;24.25;;;16.73;;
67798;SDS011;54596;43.216;27.904;2023-03-16T03:11:32;23.65;;;16.73;;
67798;SDS011;54596;43.216;27.904;2023-03-16T03:13:57;18.48;;;14.80;;
67798;SDS011;54596;43.216;27.904;2023-03-16T03:16:41;21.60;;;14.55;;
67798;SDS011;54596;43.216;27.904;2023-03-16T03:19:10;18.73;;;14.43;;
67798;SDS011;54596;43.216;27.904;2023-03-16T03:21:36;19.55;;;14.50;;
67798;SDS011;54596;43.216;27.904;2023-03-16T03:24:02;18.95;;;14.75;;
67798;SDS011;54596;43.216;27.904;2023-03-16T03:26:28;19.92;;;15.13;;
67798;SDS011;54596;43.216;27.904;2023-03-16T03:28:53;20.13;;;14.88;;
67798;SDS011;54596;43.216;27.904;2023-03-16T03:31:20;19.17;;;14.07;;
67798;SDS011;54596;43.216;27.904;2023-03-16T03:33:46;20.67;;;14.70;;
67798;SDS011;54596;43.216;27.904;2023-03-16T03:36:12;20.73;;;14.93;;
67798;SDS011;54596;43.216;27.904;2023-03-16T03:38:38;24.05;;;17.30;;
67798;SDS011;54596;43.216;27.904;2023-03-16T03:41:04;25.27;;;18.83;;
67798;SDS011;54596;43.216;27.904;2023-03-16T03:43:33;31.25;;;21.48;;
67798;SDS011;54596;43.216;27.904;2023-03-16T03:46:00;32.38;;;22.58;;
67798;SDS011;54596;43.216;27.904;2023-03-16T03:48:26;33.50;;;22.58;;
67798;SDS011;54596;43.216;27.904;2023-03-16T03:50:53;30.98;;;23.10;;
67798;SDS011;54596;43.216;27.904;2023-03-16T03:53:18;33.03;;;22.95;;
67798;SDS011;54596;43.216;27.904;2023-03-16T03:55:44;34.97;;;22.77;;
67798;SDS011;54596;43.216;27.904;2023-03-16T03:58:09;35.95;;;24.33;;
67798;SDS011;54596;43.216;27.904;2023-03-16T04:00:36;35.38;;;23.88;;
67798;SDS011;54596;43.216;27.904;2023-03-16T04:03:02;32.70;;;24.08;;
67798;SDS011;54596;43.216;27.904;2023-03-16T04:05:29;36.45;;;23.85;;
67798;SDS011;54596;43.216;27.904;2023-03-16T04:07:54;32.08;;;24.63;;
67798;SDS011;54596;43.216;27.904;2023-03-16T04:10:25;32.55;;;23.40;;
67798;SDS011;54596;43.216;27.904;2023-03-16T04:12:55;32.85;;;23.20;;
67798;SDS011;54596;43.216;27.904;2023-03-16T04:15:22;27.02;;;19.27;;
67798;SDS011;54596;43.216;27.904;2023-03-16T04:17:48;26.17;;;19.42;;
67798;SDS011;54596;43.216;27.904;2023-03-16T04:20:14;27.98;;;18.63;;
67798;SDS011;54596;43.216;27.904;2023-03-16T04:22:43;24.42;;;18.88;;
67798;SDS011;54596;43.216;27.904;2023-03-16T04:25:11;23.15;;;17.67;;
67798;SDS011;54596;43.216;27.904;2023-03-16T04:27:39;24.52;;;19.00;;
67798;SDS011;54596;43.216;27.904;2023-03-16T04:30:06;26.30;;;19.05;;
67798;SDS011;54596;43.216;27.904;2023-03-16T04:32:36;26.88;;;20.48;;
67798;SDS011;54596;43.216;27.904;2023-03-16T04:35:02;32.53;;;23.10;;
67798;SDS011;54596;43.216;27.904;2023-03-16T04:37:28;27.75;;;22.13;;
67798;SDS011;54596;43.216;27.904;2023-03-16T04:39:54;29.35;;;22.23;;
67798;SDS011;54596;43.216;27.904;2023-03-16T04:42:20;29.40;;;21.65;;
67798;SDS011;54596;43.216;27.904;2023-03-16T04:44:45;27.92;;;21.83;;
67798;SDS011;54596;43.216;27.904;2023-03-16T04:47:12;33.25;;;24.30;;
67798;SDS011;54596;43.216;27.904;2023-03-16T04:49:39;31.83;;;24.50;;
67798;SDS011;54596;43.216;27.904;2023-03-16T04:52:05;39.97;;;28.92;;
67798;SDS011;54596;43.216;27.904;2023-03-16T04:54:31;39.42;;;28.75;;
67798;SDS011;54596;43.216;27.904;2023-03-16T04:56:57;36.25;;;28.55;;
67798;SDS011;54596;43.216;27.904;2023-03-16T04:59:23;37.78;;;28.88;;
67798;SDS011;54596;43.216;27.904;2023-03-16T05:01:49;37.35;;;28.30;;
67798;SDS011;54596;43.216;27.904;2023-03-16T05:04:15;37.53;;;26.35;;
67798;SDS011;54596;43.216;27.904;2023-03-16T05:06:40;34.53;;;24.92;;
67798;SDS011;54596;43.216;27.904;2023-03-16T05:09:06;33.75;;;24.88;;
67798;SDS011;54596;43.216;27.904;2023-03-16T05:11:34;33.35;;;24.20;;
67798;SDS011;54596;43.216;27.904;2023-03-16T05:14:00;34.60;;;24.33;;
67798;SDS011;54596;43.216;27.904;2023-03-16T05:16:32;33.85;;;24.00;;
67798;SDS011;54596;43.216;27.904;2023-03-16T05:18:58;32.85;;;23.65;;
67798;SDS011;54596;43.216;27.904;2023-03-16T05:21:24;34.10;;;25.67;;
67798;SDS011;54596;43.216;27.904;2023-03-16T05:23:49;38.17;;;26.42;;
67798;SDS011;54596;43.216;27.904;2023-03-16T05:26:15;44.33;;;33.08;;
67798;SDS011;54596;43.216;27.904;2023-03-16T05:28:42;36.05;;;24.58;;
67798;SDS011;54596;43.216;27.904;2023-03-16T05:31:09;36.85;;;27.35;;
67798;SDS011;54596;43.216;27.904;2023-03-16T05:33:35;40.85;;;28.67;;
67798;SDS011;54596;43.216;27.904;2023-03-16T05:36:01;44.05;;;29.98;;
67798;SDS011;54596;43.216;27.904;2023-03-16T05:38:27;43.17;;;30.63;;
67798;SDS011;54596;43.216;27.904;2023-03-16T05:40:55;44.92;;;30.23;;
67798;SDS011;54596;43.216;27.904;2023-03-16T05:43:25;45.50;;;32.78;;
67798;SDS011;54596;43.216;27.904;2023-03-16T05:45:53;45.95;;;32.00;;
67798;SDS011;54596;43.216;27.904;2023-03-16T05:48:20;42.45;;;31.42;;
67798;SDS011;54596;43.216;27.904;2023-03-16T05:50:46;40.17;;;29.45;;
67798;SDS011;54596;43.216;27.904;2023-03-16T05:53:12;45.15;;;34.72;;
67798;SDS011;54596;43.216;27.904;2023-03-16T05:55:39;43.13;;;32.50;;
67798;SDS011;54596;43.216;27.904;2023-03-16T05:58:05;44.35;;;30.95;;
67798;SDS011;54596;43.216;27.904;2023-03-16T06:00:30;51.88;;;39.45;;
67798;SDS011;54596;43.216;27.904;2023-03-16T06:02:56;46.38;;;31.70;;
67798;SDS011;54596;43.216;27.904;2023-03-16T06:05:22;42.08;;;32.83;;
67798;SDS011;54596;43.216;27.904;2023-03-16T06:07:49;39.75;;;31.40;;
67798;SDS011;54596;43.216;27.904;2023-03-16T06:10:15;40.08;;;30.42;;
67798;SDS011;54596;43.216;27.904;2023-03-16T06:12:42;38.08;;;29.15;;
67798;SDS011;54596;43.216;27.904;2023-03-16T06:15:08;43.42;;;35.10;;
67798;SDS011;54596;43.216;27.904;2023-03-16T06:17:34;64.43;;;49.75;;
67798;SDS011;54596;43.216;27.904;2023-03-16T06:20:01;44.70;;;33.45;;
67798;SDS011;54596;43.216;27.904;2023-03-16T06:22:27;36.22;;;27.88;;
67798;SDS011;54596;43.216;27.904;2023-03-16T06:24:54;43.65;;;33.13;;
67798;SDS011;54596;43.216;27.904;2023-03-16T06:27:19;50.10;;;36.15;;
67798;SDS011;54596;43.216;27.904;2023-03-16T06:29:45;51.95;;;37.78;;
67798;SDS011;54596;43.216;27.904;2023-03-16T06:32:12;45.47;;;35.15;;
67798;SDS011;54596;43.216;27.904;2023-03-16T06:34:38;46.20;;;35.50;;
67798;SDS011;54596;43.216;27.904;2023-03-16T06:37:05;43.15;;;30.85;;
67798;SDS011;54596;43.216;27.904;2023-03-16T06:39:31;41.65;;;30.77;;
67798;SDS011;54596;43.216;27.904;2023-03-16T06:41:56;37.03;;;27.35;;
67798;SDS011;54596;43.216;27.904;2023-03-16T06:44:22;52.03;;;37.80;;
67798;SDS011;54596;43.216;27.904;2023-03-16T06:46:47;47.45;;;31.90;;
67798;SDS011;54596;43.216;27.904;2023-03-16T06:49:13;38.53;;;28.90;;
67798;SDS011;54596;43.216;27.904;2023-03-16T06:51:38;45.95;;;32.45;;
67798;SDS011;54596;43.216;27.904;2023-03-16T06:54:04;51.17;;;35.22;;
67798;SDS011;54596;43.216;27.904;2023-03-16T06:56:29;42.75;;;31.95;;
67798;SDS011;54596;43.216;27.904;2023-03-16T06:58:55;42.55;;;30.15;;
67798;SDS011;54596;43.216;27.904;2023-03-16T07:01:22;37.13;;;29.30;;
67798;SDS011;54596;43.216;27.904;2023-03-16T07:03:48;38.65;;;30.45;;
67798;SDS011;54596;43.216;27.904;2023-03-16T07:06:14;52.92;;;37.08;;
67798;SDS011;54596;43.216;27.904;2023-03-16T07:08:40;47.05;;;34.40;;
67798;SDS011;54596;43.216;27.904;2023-03-16T07:11:06;39.80;;;31.02;;
67798;SDS011;54596;43.216;27.904;2023-03-16T07:13:32;43.65;;;33.10;;
67798;SDS011;54596;43.216;27.904;2023-03-16T07:15:59;54.42;;;39.13;;
67798;SDS011;54596;43.216;27.904;2023-03-16T07:18:25;69.90;;;53.50;;
67798;SDS011;54596;43.216;27.904;2023-03-16T07:20:51;63.63;;;46.63;;
67798;SDS011;54596;43.216;27.904;2023-03-16T07:23:18;67.47;;;49.13;;
67798;SDS011;54596;43.216;27.904;2023-03-16T07:25:44;73.75;;;53.00;;
67798;SDS011;54596;43.216;27.904;2023-03-16T07:28:10;65.90;;;47.78;;
67798;SDS011;54596;43.216;27.904;2023-03-16T07:30:35;61.83;;;44.95;;
67798;SDS011;54596;43.216;27.904;2023-03-16T07:33:01;62.15;;;44.22;;
67798;SDS011;54596;43.216;27.904;2023-03-16T07:35:27;60.97;;;44.05;;
67798;SDS011;54596;43.216;27.904;2023-03-16T07:37:52;63.38;;;43.97;;
67798;SDS011;54596;43.216;27.904;2023-03-16T07:40:18;62.60;;;44.90;;
67798;SDS011;54596;43.216;27.904;2023-03-16T07:42:43;57.20;;;41.22;;
67798;SDS011;54596;43.216;27.904;2023-03-16T07:45:09;55.15;;;39.33;;
67798;SDS011;54596;43.216;27.904;2023-03-16T07:47:36;59.13;;;40.95;;
67798;SDS011;54596;43.216;27.904;2023-03-16T07:50:02;71.05;;;46.30;;
67798;SDS011;54596;43.216;27.904;2023-03-16T07:52:27;62.65;;;43.75;;
67798;SDS011;54596;43.216;27.904;2023-03-16T07:54:53;68.72;;;45.03;;
67798;SDS011;54596;43.216;27.904;2023-03-16T07:57:19;61.70;;;43.47;;
67798;SDS011;54596;43.216;27.904;2023-03-16T07:59:45;29.10;;;18.75;;
67798;SDS011;54596;43.216;27.904;2023-03-16T08:02:12;65.40;;;46.33;;
67798;SDS011;54596;43.216;27.904;2023-03-16T08:04:39;20.27;;;12.77;;
67798;SDS011;54596;43.216;27.904;2023-03-16T08:07:07;17.17;;;11.93;;
67798;SDS011;54596;43.216;27.904;2023-03-16T08:09:33;44.88;;;29.88;;
67798;SDS011;54596;43.216;27.904;2023-03-16T08:12:00;19.83;;;11.48;;
67798;SDS011;54596;43.216;27.904;2023-03-16T08:14:27;7.50;;;4.10;;
67798;SDS011;54596;43.216;27.904;2023-03-16T08:16:53;12.18;;;4.78;;
67798;SDS011;54596;43.216;27.904;2023-03-16T08:19:19;9.35;;;4.93;;
67798;SDS011;54596;43.216;27.904;2023-03-16T08:21:44;8.75;;;4.65;;
67798;SDS011;54596;43.216;27.904;2023-03-16T08:24:10;9.43;;;4.93;;
67798;SDS011;54596;43.216;27.904;2023-03-16T08:26:35;10.77;;;5.70;;
67798;SDS011;54596;43.216;27.904;2023-03-16T08:29:01;9.25;;;5.20;;
67798;SDS011;54596;43.216;27.904;2023-03-16T08:31:27;13.35;;;5.80;;
67798;SDS011;54596;43.216;27.904;2023-03-16T08:33:55;10.32;;;5.47;;
67798;SDS011;54596;43.216;27.904;2023-03-16T08:36:22;10.35;;;5.68;;
67798;SDS011;54596;43.216;27.904;2023-03-16T08:38:47;9.32;;;5.82;;
67798;SDS011;54596;43.216;27.904;2023-03-16T08:41:13;9.23;;;5.53;;
67798;SDS011;54596;43.216;27.904;2023-03-16T08:43:41;9.45;;;5.82;;
67798;SDS011;54596;43.216;27.904;2023-03-16T08:46:06;11.93;;;6.10;;
67798;SDS011;54596;43.216;27.904;2023-03-16T08:48:32;10.43;;;6.07;;
67798;SDS011;54596;43.216;27.904;2023-03-16T08:51:02;11.95;;;7.00;;
67798;SDS011;54596;43.216;27.904;2023-03-16T08:53:30;11.00;;;6.35;;
67798;SDS011;54596;43.216;27.904;2023-03-16T08:56:02;11.35;;;5.90;;
67798;SDS011;54596;43.216;27.904;2023-03-16T08:58:33;10.77;;;7.50;;
67798;SDS011;54596;43.216;27.904;2023-03-16T09:01:00;13.20;;;7.22;;
67798;SDS011;54596;43.216;27.904;2023-03-16T09:03:26;11.40;;;7.90;;
67798;SDS011;54596;43.216;27.904;2023-03-16T09:05:52;12.20;;;7.60;;
67798;SDS011;54596;43.216;27.904;2023-03-16T09:08:19;10.68;;;7.38;;
67798;SDS011;54596;43.216;27.904;2023-03-16T09:10:44;12.77;;;7.45;;
67798;SDS011;54596;43.216;27.904;2023-03-16T09:13:11;17.40;;;9.35;;
67798;SDS011;54596;43.216;27.904;2023-03-16T09:15:36;17.85;;;10.88;;
67798;SDS011;54596;43.216;27.904;2023-03-16T09:18:03;12.63;;;8.30;;
67798;SDS011;54596;43.216;27.904;2023-03-16T09:20:29;11.20;;;7.90;;
67798;SDS011;54596;43.216;27.904;2023-03-16T09:22:56;13.25;;;9.40;;
67798;SDS011;54596;43.216;27.904;2023-03-16T09:25:22;17.25;;;10.02;;
67798;SDS011;54596;43.216;27.904;2023-03-16T09:27:49;17.08;;;10.13;;
67798;SDS011;54596;43.216;27.904;2023-03-16T09:30:15;15.00;;;9.90;;
67798;SDS011;54596;43.216;27.904;2023-03-16T09:32:41;15.05;;;9.40;;
67798;SDS011;54596;43.216;27.904;2023-03-16T09:35:07;13.20;;;9.10;;
67798;SDS011;54596;43.216;27.904;2023-03-16T09:37:33;13.27;;;9.25;;
67798;SDS011;54596;43.216;27.904;2023-03-16T09:39:59;13.90;;;9.10;;
67798;SDS011;54596;43.216;27.904;2023-03-16T09:42:29;15.52;;;10.30;;
67798;SDS011;54596;43.216;27.904;2023-03-16T09:48:04;13.52;;;10.27;;
67798;SDS011;54596;43.216;27.904;2023-03-16T09:50:32;16.65;;;9.82;;
67798;SDS011;54596;43.216;27.904;2023-03-16T09:55:51;12.80;;;8.95;;
67798;SDS011;54596;43.216;27.904;2023-03-16T09:58:20;13.80;;;9.25;;
67798;SDS011;54596;43.216;27.904;2023-03-16T10:03:22;12.55;;;8.32;;
67798;SDS011;54596;43.216;27.904;2023-03-16T10:05:56;12.60;;;8.98;;
67798;SDS011;54596;43.216;27.904;2023-03-16T10:08:35;13.23;;;9.25;;
67798;SDS011;54596;43.216;27.904;2023-03-16T10:14:27;15.95;;;10.85;;
67798;SDS011;54596;43.216;27.904;2023-03-16T10:22:48;14.40;;;10.40;;
67798;SDS011;54596;43.216;27.904;2023-03-16T10:27:41;14.65;;;8.77;;
67798;SDS011;54596;43.216;27.904;2023-03-16T10:30:24;13.30;;;10.05;;
67798;SDS011;54596;43.216;27.904;2023-03-16T10:32:53;13.73;;;9.95;;
67798;SDS011;54596;43.216;27.904;2023-03-16T10:43:54;12.40;;;8.93;;
67798;SDS011;54596;43.216;27.904;2023-03-16T10:46:24;14.30;;;10.95;;
67798;SDS011;54596;43.216;27.904;2023-03-16T10:48:55;12.95;;;9.38;;
67798;SDS011;54596;43.216;27.904;2023-03-16T10:51:27;13.10;;;9.43;;
67798;SDS011;54596;43.216;27.904;2023-03-16T10:54:08;14.20;;;9.75;;
67798;SDS011;54596;43.216;27.904;2023-03-16T10:56:40;12.13;;;7.75;;
67798;SDS011;54596;43.216;27.904;2023-03-16T10:59:12;13.27;;;9.10;;
67798;SDS011;54596;43.216;27.904;2023-03-16T11:01:43;15.73;;;10.77;;
67798;SDS011;54596;43.216;27.904;2023-03-16T11:04:13;15.25;;;11.18;;
67798;SDS011;54596;43.216;27.904;2023-03-16T11:06:46;12.18;;;7.72;;
67798;SDS011;54596;43.216;27.904;2023-03-16T11:09:22;13.82;;;8.02;;
67798;SDS011;54596;43.216;27.904;2023-03-16T11:11:53;12.20;;;8.23;;
67798;SDS011;54596;43.216;27.904;2023-03-16T11:14:24;15.75;;;9.20;;
67798;SDS011;54596;43.216;27.904;2023-03-16T11:17:02;11.10;;;7.30;;
67798;SDS011;54596;43.216;27.904;2023-03-16T11:20:42;10.80;;;7.18;;
67798;SDS011;54596;43.216;27.904;2023-03-16T11:22:52;12.60;;;8.73;;
67798;SDS011;54596;43.216;27.904;2023-03-16T11:28:05;13.77;;;9.93;;
67798;SDS011;54596;43.216;27.904;2023-03-16T11:30:45;14.07;;;10.20;;
67798;SDS011;54596;43.216;27.904;2023-03-16T11:33:15;14.20;;;9.95;;
67798;SDS011;54596;43.216;27.904;2023-03-16T11:38:12;12.10;;;8.00;;
67798;SDS011;54596;43.216;27.904;2023-03-16T11:51:36;14.98;;;10.68;;
67798;SDS011;54596;43.216;27.904;2023-03-16T11:54:52;15.88;;;10.95;;
67798;SDS011;54596;43.216;27.904;2023-03-16T12:06:16;13.27;;;10.18;;
67798;SDS011;54596;43.216;27.904;2023-03-16T12:14:37;19.73;;;15.15;;
67798;SDS011;54596;43.216;27.904;2023-03-16T12:17:16;17.25;;;13.10;;
67798;SDS011;54596;43.216;27.904;2023-03-16T12:20:06;18.00;;;11.55;;
67798;SDS011;54596;43.216;27.904;2023-03-16T12:22:45;14.73;;;11.60;;
67798;SDS011;54596;43.216;27.904;2023-03-16T12:25:19;15.65;;;11.50;;
67798;SDS011;54596;43.216;27.904;2023-03-16T12:27:56;15.77;;;12.02;;
67798;SDS011;54596;43.216;27.904;2023-03-16T12:30:36;21.02;;;15.90;;
67798;SDS011;54596;43.216;27.904;2023-03-16T12:33:32;15.93;;;12.40;;
67798;SDS011;54596;43.216;27.904;2023-03-16T12:38:56;18.85;;;13.80;;
67798;SDS011;54596;43.216;27.904;2023-03-16T12:41:37;15.45;;;11.48;;
67798;SDS011;54596;43.216;27.904;2023-03-16T12:45:03;16.40;;;11.45;;
67798;SDS011;54596;43.216;27.904;2023-03-16T12:47:27;16.92;;;12.23;;
67798;SDS011;54596;43.216;27.904;2023-03-16T12:49:54;15.48;;;11.98;;
67798;SDS011;54596;43.216;27.904;2023-03-16T12:52:28;18.02;;;13.20;;
67798;SDS011;54596;43.216;27.904;2023-03-16T12:55:17;17.38;;;13.15;;
67798;SDS011;54596;43.216;27.904;2023-03-16T12:57:45;15.95;;;11.90;;
67798;SDS011;54596;43.216;27.904;2023-03-16T13:00:15;17.02;;;12.27;;
67798;SDS011;54596;43.216;27.904;2023-03-16T13:02:52;16.38;;;11.77;;
67798;SDS011;54596;43.216;27.904;2023-03-16T13:05:35;15.38;;;11.93;;
67798;SDS011;54596;43.216;27.904;2023-03-16T13:10:35;17.45;;;13.27;;
67798;SDS011;54596;43.216;27.904;2023-03-16T13:13:14;16.88;;;13.20;;
67798;SDS011;54596;43.216;27.904;2023-03-16T13:15:42;17.65;;;13.23;;
67798;SDS011;54596;43.216;27.904;2023-03-16T13:23:57;20.48;;;16.80;;
67798;SDS011;54596;43.216;27.904;2023-03-16T13:26:45;19.73;;;16.08;;
67798;SDS011;54596;43.216;27.904;2023-03-16T13:29:21;19.35;;;15.55;;
67798;SDS011;54596;43.216;27.904;2023-03-16T13:31:49;21.40;;;15.52;;
67798;SDS011;54596;43.216;27.904;2023-03-16T13:34:21;16.67;;;13.50;;
67798;SDS011;54596;43.216;27.904;2023-03-16T13:36:52;14.98;;;12.00;;
67798;SDS011;54596;43.216;27.904;2023-03-16T13:39:21;18.25;;;12.00;;
67798;SDS011;54596;43.216;27.904;2023-03-16T13:41:55;15.20;;;11.30;;
67798;SDS011;54596;43.216;27.904;2023-03-16T13:44:29;15.32;;;11.95;;
67798;SDS011;54596;43.216;27.904;2023-03-16T13:46:56;15.93;;;12.13;;
67798;SDS011;54596;43.216;27.904;2023-03-16T13:49:26;16.67;;;13.57;;
67798;SDS011;54596;43.216;27.904;2023-03-16T13:51:52;19.02;;;15.48;;
67798;SDS011;54596;43.216;27.904;2023-03-16T13:54:26;19.88;;;15.88;;
67798;SDS011;54596;43.216;27.904;2023-03-16T13:57:00;20.23;;;15.25;;
67798;SDS011;54596;43.216;27.904;2023-03-16T13:59:30;16.90;;;12.63;;
67798;SDS011;54596;43.216;27.904;2023-03-16T14:01:56;13.15;;;8.68;;
67798;SDS011;54596;43.216;27.904;2023-03-16T14:04:30;10.57;;;6.82;;
67798;SDS011;54596;43.216;27.904;2023-03-16T14:06:58;10.98;;;7.13;;
67798;SDS011;54596;43.216;27.904;2023-03-16T14:09:28;11.55;;;7.15;;
67798;SDS011;54596;43.216;27.904;2023-03-16T14:11:57;10.32;;;6.78;;
67798;SDS011;54596;43.216;27.904;2023-03-16T14:14:30;12.27;;;7.65;;
67798;SDS011;54596;43.216;27.904;2023-03-16T14:17:09;12.32;;;7.65;;
67798;SDS011;54596;43.216;27.904;2023-03-16T14:19:45;13.00;;;8.02;;
67798;SDS011;54596;43.216;27.904;2023-03-16T14:22:19;14.25;;;9.48;;
67798;SDS011;54596;43.216;27.904;2023-03-16T14:24:52;12.52;;;8.52;;
67798;SDS011;54596;43.216;27.904;2023-03-16T14:29:50;11.25;;;8.25;;
67798;SDS011;54596;43.216;27.904;2023-03-16T14:32:22;12.82;;;7.90;;
67798;SDS011;54596;43.216;27.904;2023-03-16T14:35:15;14.13;;;9.23;;
67798;SDS011;54596;43.216;27.904;2023-03-16T14:37:44;13.45;;;8.93;;
67798;SDS011;54596;43.216;27.904;2023-03-16T14:42:56;11.82;;;7.63;;
67798;SDS011;54596;43.216;27.904;2023-03-16T14:45:25;10.90;;;7.40;;
67798;SDS011;54596;43.216;27.904;2023-03-16T14:48:13;12.98;;;8.45;;
67798;SDS011;54596;43.216;27.904;2023-03-16T14:50:44;11.85;;;7.65;;
67798;SDS011;54596;43.216;27.904;2023-03-16T14:53:16;11.40;;;7.72;;
67798;SDS011;54596;43.216;27.904;2023-03-16T14:55:42;11.18;;;7.53;;
67798;SDS011;54596;43.216;27.904;2023-03-16T14:58:11;12.23;;;8.18;;
67798;SDS011;54596;43.216;27.904;2023-03-16T15:00:37;12.38;;;7.30;;
67798;SDS011;54596;43.216;27.904;2023-03-16T15:03:06;14.43;;;8.40;;
67798;SDS011;54596;43.216;27.904;2023-03-16T15:05:40;11.77;;;7.80;;
67798;SDS011;54596;43.216;27.904;2023-03-16T15:08:11;14.82;;;9.10;;
67798;SDS011;54596;43.216;27.904;2023-03-16T15:10:41;11.27;;;7.32;;
67798;SDS011;54596;43.216;27.904;2023-03-16T15:13:15;13.57;;;10.13;;
67798;SDS011;54596;43.216;27.904;2023-03-16T15:16:01;12.02;;;7.60;;
67798;SDS011;54596;43.216;27.904;2023-03-16T15:18:29;12.23;;;7.93;;
67798;SDS011;54596;43.216;27.904;2023-03-16T15:20:56;12.38;;;7.75;;
67798;SDS011;54596;43.216;27.904;2023-03-16T15:23:23;11.10;;;7.15;;
67798;SDS011;54596;43.216;27.904;2023-03-16T15:25:51;10.52;;;6.68;;
67798;SDS011;54596;43.216;27.904;2023-03-16T15:30:52;12.57;;;7.88;;
67798;SDS011;54596;43.216;27.904;2023-03-16T15:33:20;10.50;;;6.97;;
67798;SDS011;54596;43.216;27.904;2023-03-16T15:35:48;13.73;;;8.05;;
67798;SDS011;54596;43.216;27.904;2023-03-16T15:38:29;10.98;;;7.13;;
67798;SDS011;54596;43.216;27.904;2023-03-16T15:40:57;10.85;;;6.93;;
67798;SDS011;54596;43.216;27.904;2023-03-16T15:43:24;11.55;;;7.20;;
67798;SDS011;54596;43.216;27.904;2023-03-16T15:45:53;10.57;;;6.82;;
67798;SDS011;54596;43.216;27.904;2023-03-16T15:48:21;12.55;;;7.15;;
67798;SDS011;54596;43.216;27.904;2023-03-16T15:50:51;12.52;;;7.93;;
67798;SDS011;54596;43.216;27.904;2023-03-16T15:53:39;11.07;;;7.22;;